Latest Weather Observations for Lucas Heights

IDN60901

Issued at 6:51 pm EST Tuesday 7 July 2015 (issued every 10 minutes, with the page automatically refreshed every 10 minutes)

About weather observations | Map of Sydney area stations | Latest observations for Sydney area | Other Formats
Station Details ID: 066023 Name: LUCAS HEIGHTS AWS Lat: -34.05 Lon: 150.98 Height: 140.0 m
Data from the previous 72 hours. | See also: Recent months for locations in New South Wales
Date/Time
EST
Tmp

°C
App
Tmp
°C
Dew
Point
°C
Rel
Hum
%
Delta-T

°C
Wind Press
QNH
hPa
Press
MSL
hPa
Rain
since
9 am
mm
Dir
 
Spd
km/h
Gust
km/h
Spd
kts
Gust
kts
07/06:30pm 9.6 6.8 7.1 84 1.2 SSW 11 15 6 8 1023.8 - 0.2
07/06:15pm 9.7 7.3 7.2 84 1.2 S 9 13 5 7 1023.7 - 0.2
07/06:00pm 9.7 7.3 7.2 84 1.2 S 9 15 5 8 1023.6 - 0.2
07/05:45pm 9.6 7.2 6.9 83 1.3 S 9 19 5 10 1023.4 - 0.2
07/05:30pm 9.6 7.1 6.7 82 1.4 S 9 17 5 9 1023.2 - 0.2
07/05:15pm 9.7 7.2 6.5 80 1.5 S 9 13 5 7 1022.9 - 0.2
07/05:00pm 9.9 7.0 6.5 79 1.6 SSE 11 22 6 12 1022.9 - 0.2
07/04:45pm 10.6 7.0 6.7 77 1.9 SSE 15 26 8 14 1022.8 - 0.0
07/04:30pm 10.8 8.3 6.7 76 1.9 S 9 17 5 9 1022.6 - 0.0
07/04:15pm 11.4 7.8 6.7 73 2.2 S 15 24 8 13 1022.5 - 0.0
07/04:00pm 11.7 8.9 6.9 72 2.3 SSW 11 17 6 9 1022.2 - 0.0
07/03:45pm 11.8 8.6 6.9 72 2.4 S 13 20 7 11 1022.1 - 0.0
07/03:30pm 11.8 8.2 6.9 72 2.4 S 15 22 8 12 1022.0 - 0.0
07/03:15pm 11.8 7.8 6.5 70 2.5 S 17 26 9 14 1022.0 - 0.0
07/03:00pm 12.4 7.7 6.2 66 3.0 S 20 33 11 18 1021.8 - 0.0
07/02:45pm 13.2 9.9 6.4 63 3.3 S 13 19 7 10 1021.4 - 0.0
07/02:30pm 13.4 10.1 6.2 61 3.5 S 13 22 7 12 1021.2 - 0.0
07/02:15pm 13.3 9.6 6.4 63 3.3 S 15 26 8 14 1021.0 - 0.0
07/02:00pm 13.0 8.4 6.3 64 3.2 S 20 30 11 16 1020.9 - 0.0
07/01:45pm 13.2 8.8 6.5 64 3.2 S 19 32 10 17 1020.8 - 0.0
07/01:30pm 13.2 8.6 6.4 63 3.3 S 20 28 11 15 1020.8 - 0.0
07/01:15pm 13.3 9.2 6.4 63 3.3 S 17 28 9 15 1020.7 - 0.0
07/01:00pm 13.4 8.7 6.2 61 3.5 SSE 20 30 11 16 1020.6 - 0.0
07/12:45pm 13.7 10.4 6.6 62 3.4 S 13 22 7 12 1020.6 - 0.0
07/12:30pm 13.7 10.5 7.0 64 3.3 S 13 20 7 11 1020.6 - 0.0
07/12:15pm 13.2 9.9 6.6 64 3.2 S 13 24 7 13 1020.6 - 0.0
07/12:00pm 13.3 8.9 6.4 63 3.3 S 19 32 10 17 1020.6 - 0.0
07/11:45am 13.8 10.2 6.6 62 3.5 S 15 28 8 15 1020.7 - 0.0
07/11:30am 14.2 10.7 7.4 63 3.4 S 15 26 8 14 1020.8 - 0.0
07/11:15am 12.8 9.3 7.0 68 2.8 S 15 24 8 13 1020.9 - 0.0
07/11:00am 12.0 7.6 6.4 68 2.7 S 19 32 10 17 1020.9 - 0.0
07/10:45am 12.1 6.5 5.6 64 3.0 S 24 39 13 21 1021.0 - 0.0
07/10:30am 13.3 7.9 4.7 56 4.0 S 22 41 12 22 1020.8 - 0.0
07/10:15am 13.4 9.0 4.7 55 4.0 SSW 17 28 9 15 1020.6 - 0.0
07/10:00am 12.8 7.9 4.3 56 3.9 SSW 19 24 10 13 1020.5 - 0.0
07/09:45am 12.3 8.2 4.3 58 3.7 SSW 15 26 8 14 1020.4 - 0.0
07/09:30am 11.8 8.0 4.1 59 3.5 SW 13 20 7 11 1020.1 - 0.0
07/09:15am 11.4 8.0 4.0 60 3.3 SW 11 19 6 10 1020.0 - 0.0
07/09:00am 10.9 7.0 3.6 60 3.2 SW 13 24 7 13 1019.9 - 0.0
07/08:45am 10.6 5.6 3.5 61 3.1 SSW 19 28 10 15 1019.7 - 0.0
07/08:30am 10.1 5.0 3.3 62 3.0 SSW 19 28 10 15 1019.6 - 0.0
07/08:15am 9.5 3.8 3.1 64 2.8 SSW 22 35 12 19 1019.5 - 0.0
07/08:00am 8.8 3.7 2.9 66 2.5 SSW 19 28 10 15 1019.3 - 0.0
07/07:45am 8.3 2.9 2.6 67 2.4 SW 20 28 11 15 1019.2 - 0.0
07/07:30am 8.1 2.0 2.5 68 2.4 SW 24 32 13 17 1019.0 - 0.0
07/07:15am 8.0 2.6 2.4 68 2.4 SW 20 28 11 15 1018.8 - 0.0
07/07:00am 7.9 3.0 2.3 68 2.3 SW 17 24 9 13 1018.6 - 0.0
07/06:45am 8.0 2.8 2.2 67 2.4 SW 19 24 10 13 1018.3 - 0.0
07/06:30am 8.1 1.9 2.3 67 2.4 SW 24 30 13 16 1018.0 - 0.0
07/06:15am 8.2 2.0 2.3 66 2.5 SW 24 30 13 16 1017.8 - 0.0
07/06:00am 8.4 2.6 2.4 66 2.5 SW 22 30 12 16 1017.5 - 0.0
07/05:45am 8.3 2.5 2.4 66 2.5 SW 22 32 12 17 1017.4 - 0.0
07/05:30am 8.4 3.0 2.3 65 2.6 SW 20 30 11 16 1017.2 - 0.0
07/05:15am 8.5 1.9 2.3 65 2.6 SW 26 33 14 18 1016.9 - 0.0
07/05:00am 8.5 1.6 2.3 65 2.6 SW 28 33 15 18 1016.8 - 0.0
07/04:45am 8.5 1.9 2.3 65 2.6 SW 26 33 14 18 1016.7 - 0.0
07/04:30am 8.3 1.7 2.2 65 2.6 SW 26 33 14 18 1016.5 - 0.0
07/04:15am 8.3 1.7 2.3 66 2.5 SW 26 33 14 18 1016.5 - 0.0
07/04:00am 8.2 1.6 2.2 66 2.5 SW 26 33 14 18 1016.5 - 0.0
07/03:45am 8.1 1.9 2.2 66 2.5 SW 24 32 13 17 1016.6 - 0.0
07/03:30am 7.8 1.6 2.0 67 2.4 SW 24 32 13 17 1016.5 - 0.0
07/03:15am 7.5 1.6 1.7 66 2.4 WSW 22 32 12 17 1016.5 - 0.0
07/03:00am 7.6 2.1 1.6 66 2.5 WSW 20 26 11 14 1016.4 - 0.0
07/02:45am 7.7 1.1 1.8 66 2.4 SW 26 32 14 17 1016.4 - 0.0
07/02:30am 7.4 1.5 1.5 66 2.4 SW 22 28 12 15 1016.4 - 0.0
07/02:15am 7.5 1.6 1.5 66 2.5 WSW 22 26 12 14 1016.4 - 0.0
07/02:00am 7.7 1.8 1.4 64 2.6 WSW 22 30 12 16 1016.4 - 0.0
07/01:45am 8.0 2.1 1.6 64 2.6 SW 22 28 12 15 1016.3 - 0.0
07/01:30am 8.0 2.5 1.6 64 2.6 SW 20 30 11 16 1016.3 - 0.0
07/01:15am 7.9 2.6 1.6 64 2.6 SW 19 26 10 14 1016.3 - 0.0
07/01:00am 8.0 2.1 1.6 64 2.6 SW 22 32 12 17 1016.3 - 0.0
07/12:45am 8.2 2.7 1.6 63 2.7 SW 20 28 11 15 1016.4 - 0.0
07/12:30am 8.2 1.5 1.6 63 2.7 SW 26 33 14 18 1016.4 - 0.0
07/12:15am 8.1 1.4 1.3 62 2.8 SW 26 37 14 20 1016.4 - 0.0
07/12:00am 8.4 2.5 1.6 62 2.8 SW 22 37 12 20 1016.5 - 0.0
 
Date/Time
EST
Tmp

°C
App
Tmp
°C
Dew
Point
°C
Rel
Hum
%
Delta-T

°C
Wind Press
QNH
hPa
Press
MSL
hPa
Rain
since
9 am
mm
Dir
 
Spd
km/h
Gust
km/h
Spd
kts
Gust
kts
06/11:45pm 8.4 1.7 1.6 62 2.8 SW 26 35 14 19 1016.6 - 0.0
06/11:30pm 8.4 1.7 1.6 62 2.8 SW 26 37 14 20 1016.6 - 0.0
06/11:15pm 8.5 1.8 1.6 62 2.9 SW 26 35 14 19 1016.6 - 0.0
06/11:00pm 8.3 1.2 1.5 62 2.8 SW 28 39 15 21 1016.7 - 0.0
06/10:45pm 8.2 1.9 1.4 62 2.8 SW 24 32 13 17 1016.7 - 0.0
06/10:30pm 8.1 1.8 1.3 62 2.8 SW 24 32 13 17 1016.6 - 0.0
06/10:15pm 8.3 2.3 1.2 61 2.9 SW 22 30 12 16 1016.6 - 0.0
06/10:00pm 8.4 2.1 1.4 61 2.9 SW 24 32 13 17 1016.5 - 0.0
06/09:45pm 8.0 2.0 1.2 62 2.8 SW 22 28 12 15 1016.3 - 0.0
06/09:30pm 8.1 2.1 1.0 61 2.9 SW 22 28 12 15 1016.2 - 0.0
06/09:15pm 8.2 2.2 1.0 60 2.9 SW 22 28 12 15 1016.2 - 0.0
06/09:00pm 8.3 2.7 1.0 60 3.0 SW 20 28 11 15 1016.3 - 0.0
06/08:45pm 8.4 2.8 0.9 59 3.1 SW 20 24 11 13 1016.2 - 0.0
06/08:30pm 8.4 2.9 0.9 59 3.1 SW 19 24 10 13 1016.2 - 0.0
06/08:15pm 8.4 2.8 0.9 59 3.1 SW 20 26 11 14 1016.2 - 0.0
06/08:00pm 8.5 2.5 0.9 59 3.1 WSW 22 26 12 14 1016.2 - 0.0
06/07:45pm 8.4 2.0 0.8 59 3.1 WSW 24 28 13 15 1016.2 - 0.0
06/07:30pm 8.5 2.5 0.8 58 3.1 WSW 22 24 12 13 1016.2 - 0.0
06/07:15pm 8.7 3.0 0.7 57 3.3 WSW 20 24 11 13 1016.0 - 0.0
06/07:00pm 9.1 3.6 0.8 56 3.4 WSW 19 22 10 12 1016.0 - 0.0
06/06:45pm 9.3 3.8 0.7 55 3.5 WSW 19 22 10 12 1015.9 - 0.0
06/06:30pm 9.6 3.9 0.8 54 3.6 WSW 20 28 11 15 1015.7 - 0.0
06/06:15pm 9.9 3.9 0.8 53 3.8 WSW 22 28 12 15 1015.6 - 0.0
06/06:00pm 10.1 4.4 0.8 52 3.8 WSW 20 24 11 13 1015.4 - 0.0
06/05:45pm 10.4 4.8 0.9 52 3.9 SW 20 26 11 14 1015.3 - 0.0
06/05:30pm 10.7 5.1 1.3 52 4.0 SW 20 28 11 15 1015.1 - 0.0
06/05:15pm 11.3 6.0 1.6 51 4.1 WSW 19 24 10 13 1014.9 - 0.0
06/05:00pm 12.0 6.5 1.7 49 4.4 WSW 20 28 11 15 1014.8 - 0.0
06/04:45pm 12.4 7.8 1.8 48 4.6 W 15 26 8 14 1014.6 - 0.0
06/04:30pm 13.0 7.1 1.8 46 4.9 W 22 32 12 17 1014.3 - 0.0
06/04:15pm 13.5 8.0 2.1 46 5.0 W 20 32 11 17 1014.2 - 0.0
06/04:00pm 13.8 7.9 1.9 44 5.2 W 22 32 12 17 1014.0 - 0.0
06/03:45pm 14.3 8.8 1.9 43 5.5 W 20 33 11 18 1013.9 - 0.0
06/03:30pm 14.4 8.8 1.4 41 5.7 WSW 20 28 11 15 1013.7 - 0.0
06/03:15pm 14.6 8.7 1.5 41 5.7 WSW 22 32 12 17 1013.6 - 0.0
06/03:00pm 14.7 9.1 1.4 40 5.8 WSW 20 35 11 19 1013.5 - 0.0
06/02:45pm 14.8 7.7 1.6 41 5.8 WSW 28 37 15 20 1013.3 - 0.0
06/02:30pm 14.9 9.6 1.9 41 5.8 WSW 19 30 10 16 1013.2 - 0.0
06/02:15pm 14.8 9.3 1.7 41 5.8 WSW 20 28 11 15 1013.2 - 0.0
06/02:00pm 14.7 9.1 1.5 40 5.8 WSW 20 33 11 18 1013.2 - 0.0
06/01:45pm 14.4 7.6 0.8 39 5.9 WSW 26 35 14 19 1013.2 - 0.0
06/01:30pm 14.5 8.4 0.7 39 5.9 WSW 22 33 12 18 1013.3 - 0.0
06/01:15pm 14.5 9.0 0.9 39 5.9 WSW 19 32 10 17 1013.4 - 0.0
06/01:00pm 14.2 8.1 0.7 39 5.8 WSW 22 37 12 20 1013.5 - 0.0
06/12:45pm 14.1 8.1 1.1 41 5.6 W 22 32 12 17 1013.6 - 0.0
06/12:30pm 13.8 8.2 1.3 42 5.4 W 20 33 11 18 1013.9 - 0.0
06/12:15pm 13.5 8.1 1.3 43 5.3 WSW 19 28 10 15 1014.1 - 0.0
06/12:00pm 13.2 7.9 1.7 45 5.0 W 19 28 10 15 1014.4 - 0.0
06/11:45am 12.9 8.4 2.1 48 4.7 W 15 22 8 12 1014.6 - 0.0
06/11:30am 12.3 7.4 1.8 48 4.5 WSW 17 24 9 13 1014.9 - 0.0
06/11:15am 12.0 7.5 2.2 51 4.3 W 15 22 8 12 1015.1 - 0.0
06/11:00am 11.6 7.1 1.9 51 4.2 W 15 24 8 13 1015.3 - 0.0
06/10:45am 11.0 5.6 1.3 51 4.1 WSW 19 32 10 17 1015.5 - 0.0
06/10:30am 10.9 5.9 1.5 52 4.0 WSW 17 30 9 16 1015.7 - 0.0
06/10:15am 10.4 4.8 1.3 53 3.8 W 20 30 11 16 1015.8 - 0.0
06/10:00am 10.1 4.5 1.3 54 3.7 WSW 20 32 11 17 1015.8 - 0.0
06/09:45am 9.9 4.3 1.4 55 3.6 W 20 30 11 16 1015.9 - 0.0
06/09:30am 9.8 4.9 2.0 58 3.3 W 17 26 9 14 1015.9 - 0.0
06/09:15am 9.3 4.4 2.3 61 3.0 WSW 17 24 9 13 1015.9 - 0.0
06/09:00am 8.9 4.4 2.1 62 2.9 WSW 15 22 8 12 1016.0 - 0.0
06/08:45am 8.7 4.1 1.8 62 2.9 WSW 15 19 8 10 1016.1 - 0.0
06/08:30am 8.5 3.6 1.7 62 2.8 WSW 17 19 9 10 1016.1 - 0.0
06/08:15am 7.9 2.9 1.5 64 2.6 WSW 17 22 9 12 1016.1 - 0.0
06/08:00am 7.4 2.4 1.3 65 2.5 WSW 17 20 9 11 1016.1 - 0.0
06/07:45am 7.1 1.7 1.3 66 2.4 WSW 19 22 10 12 1016.0 - 0.0
06/07:30am 6.6 1.2 1.0 67 2.2 WSW 19 22 10 12 1016.0 - 0.0
06/07:15am 6.6 1.1 0.7 66 2.3 WSW 19 20 10 11 1015.9 - 0.0
06/07:00am 7.4 2.7 0.9 63 2.6 WSW 15 26 8 14 1015.8 - 0.0
06/06:45am 7.5 2.8 1.2 64 2.6 WSW 15 24 8 13 1015.7 - 0.0
06/06:30am 7.3 1.7 1.3 65 2.4 WSW 20 24 11 13 1015.7 - 0.0
06/06:15am 7.0 0.3 1.5 68 2.2 WSW 26 28 14 15 1015.7 - 0.0
06/06:00am 6.8 0.5 1.4 68 2.2 SW 24 28 13 15 1015.7 - 0.0
06/05:45am 7.0 1.1 1.5 68 2.2 WSW 22 24 12 13 1015.7 - 0.0
06/05:30am 7.3 1.8 1.6 67 2.3 WSW 20 24 11 13 1015.7 - 0.0
06/05:15am 7.4 1.9 1.6 66 2.4 WSW 20 22 11 12 1015.7 - 0.0
06/05:00am 7.7 1.8 1.8 66 2.4 WSW 22 28 12 15 1015.8 - 0.0
06/04:45am 7.4 0.8 1.9 68 2.3 WSW 26 30 14 16 1015.8 - 0.0
06/04:30am 6.8 0.9 1.4 68 2.2 SW 22 28 12 15 1015.8 - 0.0
06/04:15am 7.1 1.5 1.3 66 2.4 WSW 20 24 11 13 1015.9 - 0.0
06/04:00am 7.5 1.2 1.4 65 2.5 WSW 24 26 13 14 1016.0 - 0.0
06/03:45am 7.8 1.1 1.5 64 2.6 WSW 26 28 14 15 1016.2 - 0.0
06/03:30am 7.8 1.1 1.4 64 2.6 WSW 26 28 14 15 1016.4 - 0.0
06/03:15am 8.0 1.7 1.4 63 2.7 WSW 24 26 13 14 1016.4 - 0.0
06/03:00am 8.2 2.2 1.3 62 2.8 WSW 22 24 12 13 1016.5 - 0.0
06/02:45am 8.4 2.5 1.4 61 2.9 WSW 22 24 12 13 1016.7 - 0.0
06/02:30am 8.4 2.4 1.2 60 3.0 WSW 22 28 12 15 1016.9 - 0.0
06/02:15am 8.5 2.5 1.2 60 3.0 WSW 22 24 12 13 1017.1 - 0.0
06/02:00am 8.7 2.7 1.3 59 3.0 WSW 22 26 12 14 1017.1 - 0.0
06/01:45am 8.8 2.5 1.5 60 3.0 WSW 24 26 13 14 1017.2 - 0.0
06/01:30am 9.0 3.1 1.8 60 3.0 WSW 22 24 12 13 1017.2 - 0.0
06/01:15am 9.1 3.2 2.0 61 3.0 SW 22 24 12 13 1017.4 - 0.0
06/01:00am 9.2 3.4 2.1 61 3.0 SW 22 24 12 13 1017.5 - 0.0
06/12:45am 9.4 4.0 2.3 61 3.0 SW 20 24 11 13 1017.6 - 0.0
06/12:30am 9.7 3.9 2.4 60 3.1 SW 22 24 12 13 1017.7 - 0.0
06/12:15am 9.8 4.0 2.4 60 3.2 SW 22 24 12 13 1017.7 - 0.0
06/12:00am 10.1 4.4 3.1 62 3.0 SW 22 26 12 14 1017.9 - 0.0
 
Date/Time
EST
Tmp

°C
App
Tmp
°C
Dew
Point
°C
Rel
Hum
%
Delta-T

°C
Wind Press
QNH
hPa
Press
MSL
hPa
Rain
since
9 am
mm
Dir
 
Spd
km/h
Gust
km/h
Spd
kts
Gust
kts
05/11:45pm 9.8 4.4 4.7 70 2.3 SW 22 26 12 14 1017.9 - 0.0
05/11:30pm 8.1 2.7 4.7 79 1.5 SW 22 24 12 13 1017.9 - 0.0
05/11:15pm 5.5 0.3 2.4 80 1.3 SSW 19 22 10 12 1018.0 - 0.0
05/11:00pm 5.4 0.1 2.1 79 1.3 SSW 19 22 10 12 1018.0 - 0.0
05/10:45pm 5.5 0.6 2.3 80 1.3 SW 17 19 9 10 1018.0 - 0.0
05/10:30pm 5.6 1.5 2.3 79 1.4 WSW 13 17 7 9 1018.1 - 0.0
05/10:15pm 5.7 1.6 2.4 79 1.4 WSW 13 15 7 8 1018.0 - 0.0
05/10:00pm 5.5 1.4 2.1 79 1.4 WSW 13 15 7 8 1018.2 - 0.0
05/09:45pm 5.7 1.6 2.2 78 1.4 SW 13 15 7 8 1018.2 - 0.0
05/09:30pm 6.0 2.3 2.3 77 1.5 WSW 11 13 6 7 1018.2 - 0.0
05/09:15pm 6.3 2.7 2.7 78 1.5 SW 11 13 6 7 1018.3 - 0.0
05/09:00pm 6.2 2.9 2.5 77 1.5 SW 9 11 5 6 1018.3 - 0.0
05/08:45pm 6.4 3.1 2.4 75 1.7 SW 9 9 5 5 1018.3 - 0.0
05/08:30pm 6.8 3.5 2.4 73 1.8 WSW 9 9 5 5 1018.4 - 0.0
05/08:15pm 7.3 4.0 2.4 71 2.0 WSW 9 9 5 5 1018.5 - 0.0
05/08:00pm 7.9 4.6 2.3 68 2.3 W 9 11 5 6 1018.5 - 0.0
05/07:45pm 8.6 5.3 2.5 65 2.6 W 9 9 5 5 1018.6 - 0.0
05/07:30pm 8.8 5.6 3.0 67 2.5 W 9 9 5 5 1018.7 - 0.0
05/07:15pm 8.5 5.6 2.5 66 2.5 WNW 7 9 4 5 1018.8 - 0.0
05/07:00pm 8.8 5.8 2.1 63 2.8 NW 7 7 4 4 1018.7 - 0.0
05/06:45pm 9.6 6.6 2.0 59 3.2 NW 7 7 4 4 1018.6 - 0.0
05/06:30pm 10.8 7.8 2.1 55 3.7 NW 7 9 4 5 1018.5 - 0.0
05/06:15pm 11.5 8.2 2.4 53 4.0 NW 9 13 5 7 1018.3 - 0.0
05/06:00pm 11.0 7.3 2.4 55 3.7 NW 11 13 6 7 1018.2 - 0.0
05/05:45pm 10.8 7.0 2.0 54 3.8 NW 11 13 6 7 1018.0 - 0.0
05/05:30pm 11.2 7.5 2.2 54 3.9 NNW 11 13 6 7 1018.0 - 0.0
05/05:15pm 11.9 8.6 2.7 53 4.0 NNW 9 11 5 6 1018.1 - 0.0
05/05:00pm 12.1 9.4 2.9 53 4.1 NNW 6 7 3 4 1018.2 - 0.0
05/04:45pm 13.1 10.5 3.1 50 4.5 N 6 7 3 4 1018.1 - 0.0
05/04:30pm 14.0 11.1 2.7 46 5.1 N 7 9 4 5 1018.0 - 0.0
05/04:15pm 14.6 11.6 1.9 42 5.6 N 7 9 4 5 1018.0 - 0.0
05/04:00pm 15.2 12.4 2.0 41 5.9 N 6 7 3 4 1018.0 - 0.0
05/03:45pm 15.6 12.8 2.1 40 6.0 N 6 7 3 4 1018.0 - 0.0
05/03:30pm 15.9 13.1 1.9 39 6.3 NNW 6 9 3 5 1018.1 - 0.0
05/03:15pm 15.9 13.5 2.0 39 6.2 NNW 4 7 2 4 1018.1 - 0.0
05/03:00pm 15.9 13.5 2.1 39 6.2 NNW 4 7 2 4 1018.0 - 0.0
05/02:45pm 15.8 13.0 1.9 39 6.2 NNW 6 9 3 5 1018.0 - 0.0
05/02:30pm 15.8 12.9 1.5 38 6.3 NW 6 9 3 5 1018.1 - 0.0
05/02:15pm 15.6 12.7 1.4 38 6.3 NW 6 9 3 5 1018.1 - 0.0
05/02:00pm 15.5 12.6 1.5 38 6.2 NW 6 9 3 5 1018.2 - 0.0
05/01:45pm 15.3 12.4 1.5 39 6.1 WNW 6 9 3 5 1018.3 - 0.0
05/01:30pm 15.2 12.3 1.6 39 6.0 NW 6 9 3 5 1018.3 - 0.0
05/01:15pm 14.8 11.7 1.6 41 5.8 WNW 7 13 4 7 1018.5 - 0.0
05/01:00pm 14.8 11.7 1.3 40 5.9 NW 7 11 4 6 1018.8 - 0.0
05/12:45pm 14.6 11.4 1.0 39 5.9 NW 7 13 4 7 1019.1 - 0.0
05/12:30pm 14.4 11.3 1.6 42 5.6 WNW 7 13 4 7 1019.3 - 0.0
05/12:15pm 14.3 10.9 1.6 42 5.6 WNW 9 13 5 7 1019.7 - 0.0
05/12:00pm 14.1 10.7 2.1 44 5.3 WNW 9 15 5 8 1020.0 - 0.0
05/11:45am 14.0 11.1 2.4 45 5.2 WNW 7 15 4 8 1020.4 - 0.0
05/11:30am 13.4 10.0 1.9 45 5.0 W 9 13 5 7 1020.7 - 0.0
05/11:15am 13.2 10.2 2.2 47 4.8 W 7 11 4 6 1021.0 - 0.0
05/11:00am 12.6 9.6 1.9 48 4.6 W 7 11 4 6 1021.2 - 0.0
05/10:45am 12.2 9.2 2.2 50 4.4 W 7 13 4 7 1021.5 - 0.0
05/10:30am 11.9 8.5 2.1 51 4.2 W 9 13 5 7 1021.6 - 0.0
05/10:15am 11.5 8.2 2.5 54 3.9 W 9 15 5 8 1021.8 - 0.0
05/10:00am 11.3 8.0 2.3 54 3.9 W 9 13 5 7 1021.8 - 0.0
05/09:45am 10.9 7.9 2.0 54 3.8 W 7 13 4 7 1021.9 - 0.0
05/09:30am 10.3 6.5 2.0 56 3.5 WSW 11 17 6 9 1021.9 - 0.0
05/09:15am 9.7 5.6 2.1 59 3.2 WSW 13 19 7 10 1021.9 - 0.0
05/09:00am 9.1 5.0 2.4 63 2.8 WSW 13 19 7 10 1021.9 - 0.0
05/08:45am 8.2 3.7 2.3 66 2.5 WSW 15 20 8 11 1021.9 - 0.0
05/08:30am 7.3 2.0 2.0 69 2.2 WSW 19 22 10 12 1021.9 - 0.0
05/08:15am 6.5 1.0 1.7 71 2.0 WSW 20 24 11 13 1021.9 - 0.0
05/08:00am 5.7 -0.2 1.4 74 1.7 WSW 22 24 12 13 1021.9 - 0.0
05/07:45am 5.3 -0.3 1.3 75 1.6 WSW 20 24 11 13 1021.9 - 0.0
05/07:30am 5.0 -0.4 1.0 75 1.6 WSW 19 22 10 12 1021.8 - 0.0
05/07:15am 4.8 -0.9 0.6 74 1.6 WSW 20 24 11 13 1021.6 - 0.0
05/07:00am 5.2 0.1 1.0 74 1.7 WSW 17 20 9 11 1021.5 - 0.0
05/06:45am 5.4 -0.2 1.3 75 1.6 WSW 20 24 11 13 1021.3 - 0.0
05/06:30am 5.1 -0.5 1.3 76 1.5 WSW 20 22 11 12 1021.2 - 0.0
05/06:15am 4.5 -1.2 0.6 76 1.5 WSW 20 22 11 12 1021.1 - 0.0
05/06:00am 4.7 -0.4 0.9 76 1.5 WSW 17 22 9 12 1021.1 - 0.0
05/05:45am 4.6 -0.1 0.6 75 1.6 WSW 15 22 8 12 1021.1 - 0.0
05/05:30am 4.8 -0.3 0.7 75 1.6 W 17 22 9 12 1021.0 - 0.0
05/05:15am 5.0 0.7 0.9 75 1.6 W 13 19 7 10 1020.9 - 0.0
05/05:00am 5.2 0.2 1.2 75 1.6 WSW 17 19 9 10 1020.9 - 0.0
05/04:45am 4.7 -0.4 0.6 75 1.6 SW 17 19 9 10 1020.8 - 0.0
05/04:30am 4.9 -0.6 0.7 74 1.6 WSW 19 20 10 11 1020.9 - 0.0
05/04:15am 4.9 -0.6 0.5 73 1.7 WSW 19 22 10 12 1020.9 - 0.0
05/04:00am 5.4 -0.1 0.7 72 1.8 WSW 19 20 10 11 1020.9 - 0.0
05/03:45am 5.6 0.5 0.9 72 1.9 SW 17 20 9 11 1020.9 - 0.0
05/03:30am 5.7 1.4 0.9 71 1.9 SW 13 17 7 9 1021.0 - 0.0
05/03:15am 5.9 1.2 1.1 71 1.9 SW 15 19 8 10 1021.1 - 0.0
05/03:00am 5.7 0.3 1.1 72 1.8 SW 19 20 10 11 1021.2 - 0.0
05/02:45am 5.6 0.2 1.0 72 1.8 SW 19 22 10 12 1021.3 - 0.0
05/02:30am 5.6 0.1 0.9 72 1.9 SW 19 22 10 12 1021.4 - 0.0
05/02:15am 5.8 0.3 0.8 70 2.0 SW 19 22 10 12 1021.4 - 0.0
05/02:00am 6.1 1.4 0.8 69 2.1 SW 15 19 8 10 1021.5 - 0.0
05/01:45am 6.5 2.2 1.1 68 2.2 SW 13 17 7 9 1021.6 - 0.0
05/01:30am 6.7 1.7 1.2 68 2.2 SSW 17 19 9 10 1021.5 - 0.0
05/01:15am 6.8 1.8 1.4 68 2.2 SSW 17 19 9 10 1021.4 - 0.0
05/01:00am 6.6 2.0 1.3 69 2.1 SSW 15 19 8 10 1021.4 - 0.0
05/12:45am 6.7 2.0 1.2 68 2.2 SSW 15 20 8 11 1021.4 - 0.0
05/12:30am 6.9 1.9 1.3 67 2.3 SSW 17 20 9 11 1021.5 - 0.0
05/12:15am 6.6 1.5 1.0 67 2.2 SSW 17 22 9 12 1021.6 - 0.0
05/12:00am 6.9 1.5 1.1 66 2.3 SSW 19 22 10 12 1021.7 - 0.0
 
Date/Time
EST
Tmp

°C
App
Tmp
°C
Dew
Point
°C
Rel
Hum
%
Delta-T

°C
Wind Press
QNH
hPa
Press
MSL
hPa
Rain
since
9 am
mm
Dir
 
Spd
km/h
Gust
km/h
Spd
kts
Gust
kts
04/11:45pm 7.2 1.8 1.1 65 2.5 SSW 19 24 10 13 1021.7 - 0.0
04/11:30pm 7.4 2.0 1.2 65 2.5 SW 19 24 10 13 1021.8 - 0.0
04/11:15pm 7.6 2.2 1.2 64 2.6 SW 19 24 10 13 1021.9 - 0.0
04/11:00pm 7.7 2.3 1.2 63 2.6 SSW 19 28 10 15 1021.8 - 0.0
04/10:45pm 8.0 2.0 1.2 62 2.8 SW 22 32 12 17 1021.8 - 0.0
04/10:30pm 8.1 2.1 1.2 62 2.8 SW 22 32 12 17 1021.8 - 0.0
04/10:15pm 8.0 2.0 1.2 62 2.8 SW 22 30 12 16 1021.8 - 0.0
04/10:00pm 8.0 2.4 1.1 62 2.8 SW 20 28 11 15 1021.9 - 0.0
04/09:45pm 8.1 2.5 1.0 61 2.9 SW 20 28 11 15 1022.0 - 0.0
04/09:30pm 8.2 2.2 1.2 61 2.9 SW 22 30 12 16 1022.1 - 0.0
04/09:15pm 8.2 2.6 1.1 61 2.9 SW 20 32 11 17 1022.3 - 0.0
04/09:00pm 8.3 2.9 1.2 61 2.9 SW 19 24 10 13 1022.3 - 0.0
04/08:45pm 8.3 3.2 1.0 60 3.0 SW 17 22 9 12 1022.3 - 0.0
04/08:30pm 8.6 3.2 1.0 59 3.1 SW 19 22 10 12 1022.2 - 0.0
04/08:15pm 8.9 3.8 0.9 57 3.3 SW 17 22 9 12 1022.2 - 0.0
04/08:00pm 9.3 3.9 1.1 56 3.4 SW 19 22 10 12 1022.2 - 0.0
04/07:45pm 9.5 4.2 1.6 58 3.3 SW 19 24 10 13 1022.1 - 0.0
04/07:30pm 9.0 3.3 2.9 65 2.6 SSW 22 30 12 16 1022.0 - 0.0
04/07:15pm 7.1 1.7 2.3 71 2.0 SSW 20 28 11 15 1021.8 - 0.0
04/07:00pm 7.8 4.5 2.2 68 2.3 S 9 17 5 9 1021.7 - 0.0

Latest Capital City Observations: Canberra | Sydney | Melbourne | Brisbane | Adelaide | Perth | Hobart | Darwin

Other Formats:

Comma delimited format used in spreadsheet applications
http://www.bom.gov.au/fwo/IDN60901/IDN60901.95757.axf

JavaScript Object Notation format (JSON) in row-major order
http://www.bom.gov.au/fwo/IDN60901/IDN60901.95757.json